Time;durP1;ratioP1;P1;durP2;ratioP2;P2;SDS_P1;SDS_P2;PMS_P1;PMS_P2;Temp;Humidity;BMP_temperature;BMP_pressure;BME280_temperature;BME280_humidity;BME280_pressure;Samples;Min_cycle;Max_cycle;Signal;HPM_P1;HPM_P2
2023/08/14 00:01:00;;;;;;;7.05;2.50;;;17.20;99.90;;;;;;5091855;28;20028;-61
2023/08/14 00:03:25;;;;;;;3.80;2.40;;;17.10;99.90;;;;;;5095508;28;20384;-63
2023/08/14 00:05:51;;;;;;;4.93;2.85;;;17.10;99.90;;;;;;5110959;28;20391;-62
2023/08/14 00:08:16;;;;;;;4.22;2.53;;;17.10;99.90;;;;;;5091759;28;20031;-62
2023/08/14 00:10:42;;;;;;;4.22;2.83;;;17.00;99.90;;;;;;5111078;28;20380;-62
2023/08/14 00:13:08;;;;;;;4.55;2.95;;;17.00;99.90;;;;;;5091973;28;20035;-61
2023/08/14 00:15:33;;;;;;;7.75;2.72;;;17.00;99.90;;;;;;5104592;28;20038;-61
2023/08/14 00:17:58;;;;;;;4.38;2.88;;;16.90;99.90;;;;;;5091901;28;20036;-61
2023/08/14 00:20:24;;;;;;;4.20;2.55;;;16.90;99.90;;;;;;5110841;28;20103;-61
2023/08/14 00:22:49;;;;;;;4.68;2.33;;;16.90;99.90;;;;;;5091631;28;20277;-61
2023/08/14 00:25:15;;;;;;;4.63;2.95;;;16.90;99.90;;;;;;5109552;28;20039;-62
2023/08/14 00:27:40;;;;;;;5.65;2.80;;;16.90;99.90;;;;;;5091445;28;20447;-62
2023/08/14 00:30:06;;;;;;;5.32;2.47;;;16.90;99.90;;;;;;5106809;28;20102;-62
2023/08/14 00:32:32;;;;;;;7.43;2.83;;;16.90;99.90;;;;;;5095196;28;20036;-62
2023/08/14 00:34:57;;;;;;;3.53;2.70;;;16.80;99.90;;;;;;5111143;28;20020;-61
2023/08/14 00:37:43;;;;;;;4.63;2.88;;;16.70;99.90;;;;;;5091253;28;20032;-61
2023/08/14 00:40:10;;;;;;;6.90;2.50;;;16.70;99.90;;;;;;5070714;28;20021;-60
2023/08/14 00:42:39;;;;;;;6.30;3.42;;;16.70;99.90;;;;;;5110201;28;20035;-61
2023/08/14 00:45:08;;;;;;;7.53;3.17;;;16.60;99.90;;;;;;5090704;28;20032;-62
2023/08/14 00:47:38;;;;;;;4.50;2.92;;;16.70;99.90;;;;;;5110744;28;20419;-61
2023/08/14 00:50:07;;;;;;;6.57;2.90;;;16.60;99.90;;;;;;5091048;28;20020;-62
2023/08/14 00:52:36;;;;;;;4.13;2.90;;;16.60;99.90;;;;;;5110427;28;20020;-61
2023/08/14 00:55:03;;;;;;;6.53;3.10;;;16.60;99.90;;;;;;5090557;28;20028;-61
2023/08/14 00:57:29;;;;;;;6.97;2.80;;;16.60;99.90;;;;;;5110201;28;20044;-61
2023/08/14 00:59:56;;;;;;;4.10;3.00;;;16.60;99.90;;;;;;5090885;28;20062;-62
2023/08/14 01:02:24;;;;;;;5.65;2.70;;;16.60;99.90;;;;;;5106990;28;20072;-61
2023/08/14 01:04:49;;;;;;;6.97;2.92;;;16.60;99.90;;;;;;5110679;28;20494;-62
2023/08/14 01:07:15;;;;;;;3.80;2.83;;;16.60;99.90;;;;;;5090815;28;20028;-61
2023/08/14 01:09:40;;;;;;;2.80;2.47;;;16.60;99.90;;;;;;5109900;28;20066;-61
2023/08/14 01:12:38;;;;;;;4.70;2.60;;;16.60;99.90;;;;;;5090738;28;20028;-61
2023/08/14 01:15:11;;;;;;;5.32;2.50;;;16.70;99.90;;;;;;5092212;28;20026;-61
2023/08/14 01:17:39;;;;;;;4.18;2.63;;;16.70;99.90;;;;;;5069926;28;20400;-62
2023/08/14 01:20:07;;;;;;;5.15;3.10;;;16.70;99.90;;;;;;5109779;28;20043;-62
2023/08/14 01:23:04;;;;;;;4.32;2.70;;;16.70;99.90;;;;;;5090141;28;20031;-62
2023/08/14 01:25:30;;;;;;;;;;;16.80;99.90;;;;;;5070375;28;20037;-61
2023/08/14 01:27:57;;;;;;;3.30;2.30;;;16.80;99.90;;;;;;5109082;28;19908;-62
2023/08/14 01:30:23;;;;;;;5.50;2.75;;;16.70;99.90;;;;;;5095846;28;20122;-61
2023/08/14 01:32:49;;;;;;;3.28;2.33;;;16.70;99.90;;;;;;5108419;28;20491;-62
2023/08/14 01:35:21;;;;;;;5.00;2.97;;;16.70;99.90;;;;;;5088923;28;20028;-61
2023/08/14 01:38:20;;;;;;;3.00;2.70;;;16.70;99.90;;;;;;5109655;28;20503;-61
2023/08/14 01:41:25;;;;;;;5.10;2.65;;;16.70;99.90;;;;;;5069863;28;20021;-61
2023/08/14 01:43:54;;;;;;;3.63;3.05;;;16.60;99.90;;;;;;5109453;28;20024;-62
2023/08/14 01:46:21;;;;;;;4.97;3.10;;;16.60;99.90;;;;;;5089788;28;20039;-61
2023/08/14 01:48:49;;;;;;;3.83;3.00;;;16.50;99.90;;;;;;5109441;28;20118;-61
2023/08/14 01:51:16;;;;;;;3.47;2.72;;;16.50;99.90;;;;;;5089870;28;20166;-62
2023/08/14 01:53:41;;;;;;;5.95;3.17;;;16.40;99.90;;;;;;5109585;28;20051;-62
2023/08/14 01:56:07;;;;;;;6.57;3.33;;;16.30;99.90;;;;;;5090055;28;20059;-62
2023/08/14 01:58:33;;;;;;;3.35;2.83;;;16.30;99.90;;;;;;5109067;28;20043;-62
2023/08/14 02:00:59;;;;;;;3.33;3.03;;;16.30;99.90;;;;;;5090353;28;20036;-61
2023/08/14 02:03:25;;;;;;;5.50;2.80;;;16.30;99.90;;;;;;5093788;28;20036;-61
2023/08/14 02:05:51;;;;;;;3.88;3.28;;;16.30;99.90;;;;;;5109259;28;20031;-62
2023/08/14 02:08:16;;;;;;;7.07;3.10;;;16.30;99.90;;;;;;5090078;28;20119;-61
2023/08/14 02:10:42;;;;;;;4.93;3.33;;;16.30;99.90;;;;;;5109493;28;20019;-62
2023/08/14 02:13:07;;;;;;;5.97;3.13;;;16.30;99.90;;;;;;5089941;28;20031;-62
2023/08/14 02:15:33;;;;;;;7.28;3.60;;;16.30;99.90;;;;;;5102695;28;20032;-61
2023/08/14 02:17:58;;;;;;;4.85;3.25;;;16.30;99.90;;;;;;5089930;28;20075;-62
2023/08/14 02:20:25;;;;;;;5.53;3.40;;;16.30;99.90;;;;;;5108930;28;20399;-62
2023/08/14 02:22:50;;;;;;;4.85;3.15;;;16.30;99.90;;;;;;5090055;28;20224;-61
2023/08/14 02:25:16;;;;;;;5.28;2.90;;;16.20;99.90;;;;;;5109104;28;20190;-60
2023/08/14 02:27:41;;;;;;;5.53;3.20;;;16.20;99.90;;;;;;5089920;28;20024;-60
2023/08/14 02:30:07;;;;;;;4.53;2.40;;;16.20;99.90;;;;;;5105132;28;20399;-60
2023/08/14 02:32:33;;;;;;;5.40;2.72;;;16.20;99.90;;;;;;5093839;28;20035;-59
2023/08/14 02:34:58;;;;;;;5.13;3.33;;;16.10;99.90;;;;;;5109631;28;20077;-59
2023/08/14 02:37:24;;;;;;;5.32;3.03;;;16.00;99.90;;;;;;5089809;28;20036;-59
2023/08/14 02:39:49;;;;;;;3.92;3.17;;;16.00;99.90;;;;;;5109193;28;20535;-59
2023/08/14 02:42:16;;;;;;;10.75;3.70;;;15.90;99.90;;;;;;5089823;28;20034;-60
2023/08/14 02:44:41;;;;;;;6.72;3.15;;;15.90;99.90;;;;;;5108972;28;20035;-60
2023/08/14 02:47:07;;;;;;;4.82;2.85;;;15.90;99.90;;;;;;5089755;28;20039;-59
2023/08/14 02:49:33;;;;;;;5.50;3.05;;;15.80;99.90;;;;;;5110909;28;20446;-60
2023/08/14 02:51:59;;;;;;;5.18;3.30;;;15.80;99.90;;;;;;5093455;28;20032;-59
2023/08/14 02:54:25;;;;;;;5.00;3.28;;;15.70;99.90;;;;;;5112465;28;20441;-59
2023/08/14 02:56:50;;;;;;;6.47;3.60;;;15.70;99.90;;;;;;5093218;28;20097;-60
2023/08/14 02:59:16;;;;;;;4.20;3.25;;;15.60;99.90;;;;;;5111075;28;20046;-59
2023/08/14 03:01:42;;;;;;;4.55;3.83;;;15.60;99.90;;;;;;5093310;28;20028;-59
2023/08/14 03:04:07;;;;;;;7.47;3.42;;;15.50;99.90;;;;;;5090836;28;20032;-60
2023/08/14 03:06:33;;;;;;;8.27;3.50;;;15.50;99.90;;;;;;5112207;28;20104;-59
2023/08/14 03:08:59;;;;;;;6.10;3.38;;;15.40;99.90;;;;;;5093301;28;20024;-59
2023/08/14 03:11:25;;;;;;;4.57;3.63;;;15.40;99.90;;;;;;5112073;28;20115;-59
2023/08/14 03:13:51;;;;;;;6.05;3.72;;;15.40;99.90;;;;;;5092307;28;20399;-60
2023/08/14 03:16:16;;;;;;;6.47;3.03;;;15.20;99.90;;;;;;5112886;28;20024;-59
2023/08/14 03:18:42;;;;;;;7.30;4.03;;;15.30;99.90;;;;;;5092752;28;20020;-60
2023/08/14 03:21:08;;;;;;;4.03;3.60;;;15.20;99.90;;;;;;5112117;28;20020;-60
2023/08/14 03:23:34;;;;;;;4.25;3.50;;;15.20;99.90;;;;;;5092737;28;20389;-60
2023/08/14 03:26:00;;;;;;;4.75;3.10;;;15.10;99.90;;;;;;5111974;28;20402;-59
2023/08/14 03:28:26;;;;;;;5.50;3.05;;;15.10;99.90;;;;;;5092809;28;20523;-60
2023/08/14 03:30:52;;;;;;;4.38;3.13;;;15.10;99.90;;;;;;5101682;28;20067;-59
2023/08/14 03:33:18;;;;;;;4.45;3.30;;;15.00;99.90;;;;;;5097116;28;20380;-60
2023/08/14 03:35:43;;;;;;;4.35;3.58;;;15.00;99.90;;;;;;5111687;28;20027;-60
2023/08/14 03:38:09;;;;;;;4.63;3.72;;;15.00;99.90;;;;;;5092481;28;20047;-58
2023/08/14 03:40:34;;;;;;;3.92;3.53;;;14.90;99.90;;;;;;5111532;28;20055;-60
2023/08/14 03:42:59;;;;;;;5.65;3.25;;;14.90;99.90;;;;;;5092427;28;20065;-59
2023/08/14 03:45:25;;;;;;;10.35;3.58;;;14.90;99.90;;;;;;5111513;28;20027;-60
2023/08/14 03:47:50;;;;;;;3.97;3.20;;;14.90;99.90;;;;;;5090917;28;20108;-60
2023/08/14 03:50:16;;;;;;;5.88;3.58;;;14.90;99.90;;;;;;5111261;28;20027;-59
2023/08/14 03:52:42;;;;;;;4.32;3.30;;;14.90;99.90;;;;;;5092242;28;20074;-60
2023/08/14 03:55:08;;;;;;;6.55;3.50;;;14.80;99.90;;;;;;5111248;28;20028;-59
2023/08/14 03:57:34;;;;;;;6.38;3.60;;;14.80;99.90;;;;;;5091917;28;20050;-60
2023/08/14 03:59:59;;;;;;;5.93;3.67;;;14.80;99.90;;;;;;5111237;28;20425;-59
2023/08/14 04:02:25;;;;;;;4.43;3.40;;;14.80;99.90;;;;;;5095657;28;20054;-59
2023/08/14 04:04:50;;;;;;;5.68;3.58;;;14.80;99.90;;;;;;5111790;28;20024;-60
2023/08/14 04:07:16;;;;;;;7.22;4.03;;;14.80;99.90;;;;;;5092306;28;20028;-59
2023/08/14 04:09:41;;;;;;;10.07;4.28;;;14.80;99.90;;;;;;5111044;28;20399;-60
2023/08/14 04:12:09;;;;;;;7.15;3.85;;;14.80;99.90;;;;;;5091846;28;20024;-50
2023/08/14 04:14:34;;;;;;;7.80;3.65;;;14.80;99.90;;;;;;5095898;28;20089;-44
2023/08/14 04:17:00;;;;;;;8.10;4.07;;;14.80;99.90;;;;;;5110753;28;20051;-45
2023/08/14 04:19:26;;;;;;;6.28;3.55;;;14.80;99.90;;;;;;5091854;28;20392;-44
2023/08/14 04:21:51;;;;;;;6.50;4.20;;;14.80;99.90;;;;;;5110943;28;20023;-46
2023/08/14 04:24:17;;;;;;;6.07;4.25;;;14.80;99.90;;;;;;5091470;28;20505;-45
2023/08/14 04:26:42;;;;;;;7.05;4.25;;;14.90;99.90;;;;;;5110803;28;20400;-47
2023/08/14 04:29:09;;;;;;;5.72;4.13;;;14.90;99.90;;;;;;5091617;28;20036;-46
2023/08/14 04:31:35;;;;;;;6.50;3.83;;;14.90;99.90;;;;;;5110321;28;20111;-44
2023/08/14 04:34:02;;;;;;;6.55;3.65;;;15.00;99.90;;;;;;5089408;28;20040;-47
2023/08/14 04:36:28;;;;;;;7.00;4.53;;;15.10;99.90;;;;;;5110600;28;20125;-47
2023/08/14 04:38:53;;;;;;;6.63;3.95;;;15.50;99.90;;;;;;5091319;28;20046;-46
2023/08/14 04:41:19;;;;;;;4.07;3.20;;;16.40;99.90;;;;;;5110281;28;20410;-48
2023/08/14 04:43:44;;;;;;;4.53;2.70;;;17.30;99.90;;;;;;5091526;28;20073;-47
2023/08/14 04:46:11;;;;;;;3.55;2.95;;;18.20;99.90;;;;;;5110309;28;20031;-47
2023/08/14 04:48:37;;;;;;;3.97;2.95;;;19.10;99.90;;;;;;5091000;28;20063;-49
2023/08/14 04:51:04;;;;;;;2.80;2.60;;;20.00;99.90;;;;;;5110390;28;20055;-50
2023/08/14 04:53:30;;;;;;;4.22;2.75;;;20.80;99.90;;;;;;5090850;28;20085;-48
2023/08/14 04:55:55;;;;;;;3.50;2.70;;;21.60;99.60;;;;;;5110134;28;20032;-45
2023/08/14 04:58:21;;;;;;;3.50;2.92;;;22.30;96.60;;;;;;5090988;28;20138;-47
2023/08/14 05:00:46;;;;;;;4.95;2.40;;;22.90;95.20;;;;;;5110163;28;20031;-48
2023/08/14 05:03:11;;;;;;;2.95;2.50;;;23.50;93.40;;;;;;5088969;28;20040;-46
2023/08/14 05:05:37;;;;;;;4.47;2.65;;;24.10;92.20;;;;;;5109999;28;20036;-52
2023/08/14 05:08:03;;;;;;;4.32;2.70;;;24.60;88.50;;;;;;5091035;28;20039;-46
2023/08/14 05:10:28;;;;;;;4.72;2.70;;;25.10;86.90;;;;;;5109775;28;20094;-49
2023/08/14 05:12:55;;;;;;;3.40;2.80;;;25.70;86.10;;;;;;5090208;28;20036;-47
2023/08/14 05:15:21;;;;;;;2.40;2.20;;;26.10;82.80;;;;;;5103713;28;20054;-48
2023/08/14 05:17:46;;;;;;;5.90;2.45;;;26.20;82.30;;;;;;5090491;28;20044;-46
2023/08/14 05:20:12;;;;;;;3.05;2.30;;;26.70;80.00;;;;;;5109707;28;20039;-44
2023/08/14 05:22:38;;;;;;;2.78;2.53;;;26.90;78.70;;;;;;5090635;28;20036;-45
2023/08/14 05:25:05;;;;;;;3.25;2.53;;;27.10;76.90;;;;;;5109542;28;20031;-45
2023/08/14 05:27:36;;;;;;;4.07;2.25;;;27.50;74.80;;;;;;5090247;28;20394;-45
2023/08/14 05:30:02;;;;;;;4.22;2.60;;;27.80;73.10;;;;;;5075426;28;20461;-46
2023/08/14 05:32:28;;;;;;;5.07;2.50;;;28.20;71.70;;;;;;5108605;28;20051;-50
2023/08/14 05:34:53;;;;;;;2.80;2.13;;;28.80;70.10;;;;;;5110237;28;20096;-51
2023/08/14 05:37:19;;;;;;;3.42;2.45;;;29.00;68.10;;;;;;5090460;28;20055;-47
2023/08/14 05:39:44;;;;;;;4.47;2.03;;;29.10;66.60;;;;;;5109564;28;20077;-46
2023/08/14 05:42:10;;;;;;;2.85;2.20;;;29.20;65.40;;;;;;5090284;28;20055;-44
2023/08/14 05:44:35;;;;;;;4.45;2.25;;;29.10;64.90;;;;;;5109309;28;20058;-44
2023/08/14 05:47:00;;;;;;;2.03;1.85;;;29.20;63.90;;;;;;5090576;28;20028;-47
2023/08/14 05:49:27;;;;;;;3.05;2.47;;;29.30;62.80;;;;;;5109109;28;20028;-46
2023/08/14 05:51:52;;;;;;;3.75;2.00;;;29.70;62.10;;;;;;5090188;28;20503;-45
2023/08/14 05:54:18;;;;;;;2.78;2.10;;;30.50;59.90;;;;;;5109405;28;20031;-49
2023/08/14 05:56:45;;;;;;;3.22;2.00;;;31.10;58.20;;;;;;5090090;28;20058;-45
2023/08/14 05:59:10;;;;;;;3.55;2.40;;;31.40;55.60;;;;;;5109569;28;20039;-47
2023/08/14 06:01:36;;;;;;;2.10;1.90;;;32.10;54.00;;;;;;5090249;28;20032;-50
2023/08/14 06:04:01;;;;;;;4.03;2.17;;;32.70;51.50;;;;;;5088697;28;20036;-49
2023/08/14 06:06:27;;;;;;;3.50;1.95;;;33.20;49.20;;;;;;5109396;28;20115;-48
2023/08/14 06:08:52;;;;;;;2.20;2.00;;;33.70;46.10;;;;;;5090556;28;20024;-47
2023/08/14 06:11:18;;;;;;;2.22;1.88;;;34.00;43.70;;;;;;5109360;28;20514;-45
2023/08/14 06:13:43;;;;;;;2.25;2.00;;;34.30;40.10;;;;;;5091771;28;20032;-61
2023/08/14 06:16:09;;;;;;;2.45;1.80;;;34.70;39.70;;;;;;5103915;28;20028;-60
2023/08/14 06:18:34;;;;;;;2.88;2.08;;;35.40;37.50;;;;;;5089944;28;20081;-61
2023/08/14 06:21:00;;;;;;;3.13;1.80;;;35.70;30.70;;;;;;5109473;28;20109;-62
2023/08/14 06:23:25;;;;;;;2.17;1.90;;;36.40;32.30;;;;;;5092446;28;20062;-62
2023/08/14 06:25:50;;;;;;;4.28;2.00;;;36.70;30.00;;;;;;5113290;28;20089;-61
2023/08/14 06:28:16;;;;;;;1.90;1.65;;;37.00;29.00;;;;;;5094075;28;20066;-61
2023/08/14 06:30:41;;;;;;;2.50;1.63;;;37.40;27.70;;;;;;5104400;28;20052;-61
2023/08/14 06:33:07;;;;;;;3.17;1.83;;;37.80;26.30;;;;;;5099888;28;20024;-64
2023/08/14 06:35:32;;;;;;;1.60;1.50;;;38.40;24.80;;;;;;5113178;28;20015;-62
2023/08/14 06:37:58;;;;;;;2.25;2.05;;;38.60;23.50;;;;;;5093894;28;20123;-61
2023/08/14 06:40:23;;;;;;;4.53;2.28;;;38.70;22.20;;;;;;5112878;28;20077;-62
2023/08/14 06:42:49;;;;;;;3.50;1.65;;;38.70;21.40;;;;;;5093913;28;20101;-61
2023/08/14 06:45:16;;;;;;;4.13;1.70;;;38.70;20.80;;;;;;5113054;28;20066;-61
2023/08/14 06:47:45;;;;;;;1.95;1.60;;;38.90;20.00;;;;;;5093573;28;20032;-61
2023/08/14 06:50:12;;;;;;;2.53;1.73;;;39.20;18.50;;;;;;5112796;28;20452;-61
2023/08/14 06:52:38;;;;;;;2.33;1.60;;;39.70;17.90;;;;;;5093571;28;20085;-61
2023/08/14 06:55:03;;;;;;;3.20;1.85;;;40.00;17.00;;;;;;5112671;28;20027;-61
2023/08/14 06:57:29;;;;;;;2.67;1.80;;;39.80;16.30;;;;;;5093349;28;20123;-61
2023/08/14 06:59:54;;;;;;;2.30;1.50;;;39.60;16.10;;;;;;5112646;28;20138;-61
2023/08/14 07:02:20;;;;;;;1.77;1.67;;;39.60;15.80;;;;;;5091491;28;20035;-61
2023/08/14 07:04:46;;;;;;;1.55;1.33;;;39.90;15.20;;;;;;5092882;28;20564;-61
2023/08/14 07:07:11;;;;;;;2.75;2.00;;;40.50;14.40;;;;;;5112404;28;20024;-61
2023/08/14 07:09:37;;;;;;;3.00;1.58;;;40.70;13.70;;;;;;5093274;28;20027;-61
2023/08/14 07:12:02;;;;;;;2.08;1.60;;;40.50;13.40;;;;;;5112325;28;20088;-61
2023/08/14 07:14:28;;;;;;;2.97;1.40;;;40.30;13.10;;;;;;5097637;28;20042;-61
2023/08/14 07:16:53;;;;;;;1.95;1.50;;;40.50;12.70;;;;;;5093018;28;20036;-61
2023/08/14 07:19:19;;;;;;;1.83;1.50;;;40.80;12.20;;;;;;5112058;28;20034;-61
2023/08/14 07:21:45;;;;;;;1.48;1.35;;;41.20;11.80;;;;;;5093174;28;20032;-61
2023/08/14 07:24:12;;;;;;;3.78;1.60;;;41.40;11.50;;;;;;5112116;28;20063;-60
2023/08/14 07:26:38;;;;;;;3.22;1.80;;;41.60;11.20;;;;;;5092767;28;20032;-61
2023/08/14 07:29:04;;;;;;;7.40;1.88;;;40.90;10.80;;;;;;5112292;28;20506;-61
2023/08/14 07:31:30;;;;;;;1.70;1.60;;;39.60;11.10;;;;;;5091290;28;20079;-61
2023/08/14 07:33:55;;;;;;;3.20;1.50;;;40.10;11.20;;;;;;5091946;28;20060;-61
2023/08/14 07:36:21;;;;;;;1.90;1.50;;;40.80;10.70;;;;;;5111635;28;20092;-61
2023/08/14 07:38:47;;;;;;;2.38;1.73;;;41.40;10.20;;;;;;5092734;28;20051;-61
2023/08/14 07:41:12;;;;;;;2.45;1.48;;;42.10;9.60;;;;;;5111752;28;20051;-62
2023/08/14 07:43:37;;;;;;;1.90;1.70;;;42.50;8.90;;;;;;5092700;28;20032;-62
2023/08/14 07:46:03;;;;;;;1.88;1.55;;;43.00;8.30;;;;;;5111772;28;20441;-62
2023/08/14 07:48:29;;;;;;;2.55;1.38;;;43.20;7.60;;;;;;5092484;28;20024;-62
2023/08/14 07:50:54;;;;;;;1.35;1.00;;;43.40;7.40;;;;;;5111770;28;20461;-62
2023/08/14 07:53:20;;;;;;;1.20;1.10;;;43.50;7.00;;;;;;5092471;28;20124;-61
2023/08/14 07:55:48;;;;;;;1.48;1.10;;;43.40;6.80;;;;;;5111481;28;20027;-62
2023/08/14 07:58:14;;;;;;;2.05;1.65;;;43.20;6.50;;;;;;5091966;28;20123;-61
2023/08/14 08:00:40;;;;;;;1.38;1.13;;;43.10;6.50;;;;;;5111604;28;20024;-62
2023/08/14 08:03:05;;;;;;;1.67;1.30;;;43.10;6.30;;;;;;5090213;28;20590;-62
2023/08/14 08:05:31;;;;;;;1.65;0.98;;;42.70;6.30;;;;;;5111290;28;20529;-61
2023/08/14 08:07:56;;;;;;;2.78;1.17;;;42.70;6.20;;;;;;5092223;28;20028;-62
2023/08/14 08:10:22;;;;;;;1.25;1.15;;;42.60;5.90;;;;;;5111159;28;20503;-61
2023/08/14 08:12:47;;;;;;;1.50;1.27;;;42.40;5.90;;;;;;5092085;28;20033;-61
2023/08/14 08:15:13;;;;;;;1.45;1.23;;;42.00;4.50;;;;;;5103669;28;20031;-61
2023/08/14 08:17:39;;;;;;;2.90;1.45;;;41.50;6.00;;;;;;5091868;28;20047;-61
2023/08/14 08:20:05;;;;;;;1.40;1.23;;;41.20;6.20;;;;;;5111076;28;20719;-61
2023/08/14 08:22:31;;;;;;;1.55;1.33;;;41.00;6.40;;;;;;5091653;28;20411;-61
2023/08/14 08:24:57;;;;;;;2.55;1.73;;;40.60;6.40;;;;;;5110972;28;20031;-61
2023/08/14 08:27:22;;;;;;;2.72;1.23;;;40.40;6.70;;;;;;5091674;28;20545;-61
2023/08/14 08:29:48;;;;;;;1.92;1.50;;;40.30;6.80;;;;;;5109660;28;20019;-59
2023/08/14 08:32:13;;;;;;;2.05;1.30;;;40.20;6.60;;;;;;5089113;28;20118;-59
2023/08/14 08:34:39;;;;;;;1.67;1.35;;;39.90;6.40;;;;;;5091149;28;20020;-60
2023/08/14 08:37:04;;;;;;;1.40;1.30;;;39.60;6.60;;;;;;5110625;28;20039;-60
2023/08/14 08:39:30;;;;;;;2.78;1.30;;;39.30;6.80;;;;;;5091350;28;20040;-60
2023/08/14 08:41:56;;;;;;;1.35;1.23;;;38.90;6.90;;;;;;5110646;28;20035;-60
2023/08/14 08:44:25;;;;;;;1.80;1.20;;;38.60;7.00;;;;;;5091384;28;20070;-60
2023/08/14 08:46:52;;;;;;;3.90;1.50;;;38.50;7.30;;;;;;5109981;28;20056;-60
2023/08/14 08:49:18;;;;;;;1.63;1.42;;;38.50;7.70;;;;;;5091063;28;20450;-60
2023/08/14 08:51:44;;;;;;;1.58;1.25;;;38.40;7.40;;;;;;5110414;28;20038;-60
2023/08/14 08:54:12;;;;;;;1.30;1.20;;;38.30;7.50;;;;;;5091067;28;20115;-59
2023/08/14 08:56:38;;;;;;;2.05;1.42;;;38.00;7.40;;;;;;5110590;28;20039;-60
2023/08/14 08:59:04;;;;;;;3.78;1.27;;;37.90;7.70;;;;;;5091081;28;20020;-60
2023/08/14 09:01:30;;;;;;;2.28;1.48;;;37.70;7.90;;;;;;5110566;28;20023;-62
2023/08/14 09:03:55;;;;;;;2.10;1.35;;;37.60;8.00;;;;;;5089121;28;20039;-61
2023/08/14 09:06:21;;;;;;;1.95;1.25;;;37.60;7.80;;;;;;5109985;28;20043;-61
2023/08/14 09:08:47;;;;;;;2.67;1.20;;;37.60;8.00;;;;;;5091027;28;20486;-61
2023/08/14 09:11:12;;;;;;;1.88;1.20;;;37.60;8.00;;;;;;5109911;28;20027;-61
2023/08/14 09:13:38;;;;;;;1.80;1.30;;;37.50;7.90;;;;;;5091474;28;20117;-61
2023/08/14 09:16:04;;;;;;;2.67;1.50;;;37.40;8.10;;;;;;5103678;28;20419;-62
2023/08/14 09:18:31;;;;;;;3.80;1.65;;;37.40;8.20;;;;;;5090587;28;20048;-61
2023/08/14 09:20:57;;;;;;;1.45;1.30;;;37.40;8.20;;;;;;5108741;28;20027;-61
2023/08/14 09:23:23;;;;;;;2.30;1.42;;;37.30;8.00;;;;;;5090759;28;20531;-61
2023/08/14 09:25:50;;;;;;;3.47;1.20;;;37.30;8.10;;;;;;5109854;28;20027;-61
2023/08/14 09:28:17;;;;;;;1.80;1.15;;;37.30;8.10;;;;;;5090493;28;20035;-61
2023/08/14 09:30:43;;;;;;;1.77;1.40;;;37.20;8.00;;;;;;5100988;28;20055;-61
2023/08/14 09:33:12;;;;;;;1.98;1.27;;;37.10;7.80;;;;;;5096720;28;20054;-62
2023/08/14 09:35:38;;;;;;;2.53;1.33;;;37.00;7.60;;;;;;5110281;28;20078;-61
2023/08/14 09:38:05;;;;;;;1.52;1.30;;;36.90;7.50;;;;;;5090540;28;20063;-61
2023/08/14 09:40:31;;;;;;;1.95;1.40;;;37.00;7.40;;;;;;5109736;28;20110;-61
2023/08/14 09:42:57;;;;;;;2.38;1.42;;;36.90;7.30;;;;;;5090471;28;20507;-61
2023/08/14 09:45:27;;;;;;;2.08;1.40;;;36.60;7.20;;;;;;5109703;28;20023;-61
2023/08/14 09:48:00;;;;;;;4.38;1.50;;;36.30;7.20;;;;;;5089767;28;20093;-61
2023/08/14 09:50:29;;;;;;;1.65;1.40;;;35.80;7.60;;;;;;5069853;28;20107;-62
2023/08/14 09:52:59;;;;;;;1.67;1.30;;;35.70;7.90;;;;;;5108919;28;20027;-61
2023/08/14 09:55:28;;;;;;;3.05;1.40;;;35.70;8.30;;;;;;5090175;28;20024;-61
2023/08/14 09:57:55;;;;;;;1.63;1.52;;;35.70;8.10;;;;;;5111479;28;20036;-61
2023/08/14 10:00:21;;;;;;;1.92;1.42;;;35.50;7.30;;;;;;5094405;28;20032;-61
2023/08/14 10:02:47;;;;;;;2.25;1.42;;;35.20;7.30;;;;;;5103424;28;20028;-61
2023/08/14 10:05:14;;;;;;;1.92;1.50;;;35.00;7.40;;;;;;5113736;28;20066;-60
2023/08/14 10:07:40;;;;;;;1.90;1.38;;;35.00;7.60;;;;;;5094433;28;20126;-61
2023/08/14 10:10:08;;;;;;;2.40;1.38;;;34.70;7.50;;;;;;5113698;28;20085;-61
2023/08/14 10:12:39;;;;;;;1.88;1.48;;;34.60;8.00;;;;;;5094105;28;20122;-61
2023/08/14 10:15:11;;;;;;;3.22;1.58;;;34.30;7.80;;;;;;5069570;28;20024;-59
2023/08/14 10:17:48;;;;;;;2.08;1.40;;;34.10;7.80;;;;;;5073358;28;20064;-60
2023/08/14 10:20:17;;;;;;;1.80;1.30;;;34.10;8.30;;;;;;5073435;28;20388;-51
2023/08/14 10:22:43;;;;;;;1.67;1.42;;;34.00;7.90;;;;;;5113587;28;20372;-48
2023/08/14 10:25:10;;;;;;;1.45;1.20;;;33.70;8.40;;;;;;5094130;28;20028;-46
2023/08/14 10:27:36;;;;;;;1.90;1.33;;;33.50;8.10;;;;;;5113287;28;20031;-46
2023/08/14 10:30:02;;;;;;;2.67;1.45;;;33.40;8.40;;;;;;5096496;28;20100;-45
2023/08/14 10:32:28;;;;;;;3.75;1.77;;;33.30;8.60;;;;;;5106145;28;20065;-47
2023/08/14 10:34:55;;;;;;;2.17;1.60;;;33.00;9.40;;;;;;5093508;28;20028;-47
2023/08/14 10:37:28;;;;;;;2.53;1.77;;;32.90;10.00;;;;;;5113040;28;20036;-45
2023/08/14 10:40:14;;;;;;;5.43;1.88;;;32.70;12.10;;;;;;5093654;28;20024;-46
2023/08/14 10:42:41;;;;;;;;;;;32.60;12.20;;;;;;5113467;28;20063;-47
2023/08/14 10:45:06;;;;;;;2.45;1.77;;;32.40;13.90;;;;;;5093648;27;19908;-48
2023/08/14 10:47:32;;;;;;;2.03;1.67;;;32.30;11.40;;;;;;5112763;28;20057;-45
2023/08/14 10:49:58;;;;;;;3.92;2.10;;;32.30;11.80;;;;;;5093528;28;20024;-44
2023/08/14 10:52:25;;;;;;;2.67;1.85;;;31.90;13.00;;;;;;5111535;28;20034;-44
2023/08/14 10:54:51;;;;;;;4.05;2.15;;;31.60;13.10;;;;;;5093340;28;20028;-44
2023/08/14 10:57:18;;;;;;;2.65;1.83;;;31.40;13.40;;;;;;5112723;28;20036;-46
2023/08/14 10:59:55;;;;;;;2.90;1.85;;;31.40;13.90;;;;;;5093371;28;20030;-47
2023/08/14 11:02:21;;;;;;;3.40;1.60;;;31.30;15.00;;;;;;5075327;28;20039;-46
2023/08/14 11:05:00;;;;;;;2.38;1.83;;;31.30;14.30;;;;;;5092997;28;20115;-46
2023/08/14 11:07:30;;;;;;;2.63;1.60;;;31.30;15.70;;;;;;5112528;28;20035;-46
2023/08/14 11:10:00;;;;;;;2.63;1.85;;;31.30;15.10;;;;;;5091622;28;20058;-46
2023/08/14 11:12:26;;;;;;;2.70;1.85;;;31.00;15.00;;;;;;5112761;28;20027;-45
2023/08/14 11:14:54;;;;;;;1.60;1.50;;;30.90;15.20;;;;;;5096879;28;20032;-43
2023/08/14 11:17:21;;;;;;;3.25;1.98;;;30.90;15.20;;;;;;5092597;28;20036;-47
2023/08/14 11:19:46;;;;;;;2.75;1.70;;;30.80;15.40;;;;;;5112361;28;20035;-46
2023/08/14 11:22:12;;;;;;;3.25;1.80;;;30.80;15.60;;;;;;5092985;28;20027;-44
2023/08/14 11:24:37;;;;;;;3.92;2.30;;;30.70;15.50;;;;;;5112133;28;20024;-44
2023/08/14 11:27:03;;;;;;;5.93;1.80;;;30.60;15.50;;;;;;5092855;28;20112;-46
2023/08/14 11:29:28;;;;;;;3.08;1.80;;;30.40;15.40;;;;;;5111950;28;20080;-44
2023/08/14 11:31:54;;;;;;;2.90;2.03;;;30.30;15.50;;;;;;5090811;28;20458;-45
2023/08/14 11:34:21;;;;;;;2.35;1.67;;;30.20;16.00;;;;;;5092239;28;20488;-46
2023/08/14 11:37:01;;;;;;;3.10;1.65;;;30.10;16.00;;;;;;5111974;28;20032;-46
2023/08/14 11:39:27;;;;;;;2.70;1.77;;;30.20;16.70;;;;;;5072076;28;20024;-48
2023/08/14 11:41:53;;;;;;;2.00;1.80;;;30.10;15.90;;;;;;5111288;28;20485;-47
2023/08/14 11:44:19;;;;;;;4.32;2.17;;;30.20;15.80;;;;;;5092691;28;20505;-45
2023/08/14 11:46:46;;;;;;;2.83;2.13;;;30.00;15.70;;;;;;5111652;28;20523;-46
2023/08/14 11:49:12;;;;;;;2.47;1.85;;;29.90;17.40;;;;;;5092252;28;20487;-43
2023/08/14 11:51:40;;;;;;;2.47;2.03;;;29.70;17.00;;;;;;5111652;28;20032;-49
2023/08/14 11:54:06;;;;;;;2.70;1.90;;;29.70;17.00;;;;;;5092190;27;20109;-45
2023/08/14 11:56:31;;;;;;;2.03;1.83;;;29.70;16.90;;;;;;5111594;28;20164;-46
2023/08/14 11:58:57;;;;;;;1.70;1.60;;;29.70;16.40;;;;;;5092157;28;20114;-46
2023/08/14 12:01:23;;;;;;;3.20;1.83;;;29.80;16.40;;;;;;5111531;28;20030;-44
2023/08/14 12:03:50;;;;;;;4.13;1.92;;;29.90;16.60;;;;;;5090402;28;20039;-47
2023/08/14 12:06:16;;;;;;;1.77;1.63;;;29.90;16.70;;;;;;5111528;28;20024;-48
2023/08/14 12:08:42;;;;;;;1.88;1.67;;;30.00;16.80;;;;;;5092059;28;20043;-48
2023/08/14 12:11:14;;;;;;;4.55;1.70;;;29.90;16.50;;;;;;5111320;28;20028;-45
2023/08/14 12:13:40;;;;;;;2.22;2.00;;;29.80;16.60;;;;;;5073474;28;20028;-45
2023/08/14 12:16:06;;;;;;;3.42;2.15;;;29.70;17.30;;;;;;5098630;28;20023;-47
2023/08/14 12:18:32;;;;;;;4.03;1.90;;;29.60;17.70;;;;;;5099283;28;20047;-46
2023/08/14 12:20:58;;;;;;;2.15;1.77;;;29.70;17.40;;;;;;5091677;27;20055;-44
2023/08/14 12:23:24;;;;;;;2.95;2.08;;;29.70;17.20;;;;;;5110827;28;20459;-43
2023/08/14 12:25:53;;;;;;;3.22;1.92;;;29.80;17.30;;;;;;5091552;28;20119;-45
2023/08/14 12:28:19;;;;;;;2.30;2.00;;;29.80;17.30;;;;;;5111364;28;20027;-45
2023/08/14 12:30:46;;;;;;;1.95;1.50;;;29.90;17.50;;;;;;5100062;28;20063;-49
2023/08/14 12:33:15;;;;;;;3.20;1.55;;;30.00;17.30;;;;;;5091125;27;20381;-44
2023/08/14 12:35:41;;;;;;;3.20;1.80;;;30.00;17.20;;;;;;5110507;28;20039;-45
2023/08/14 12:38:06;;;;;;;2.38;1.80;;;29.90;17.70;;;;;;5091492;28;20035;-43
2023/08/14 12:40:33;;;;;;;2.92;1.98;;;29.90;17.70;;;;;;5110406;28;20031;-44
2023/08/14 12:42:59;;;;;;;4.53;1.80;;;29.90;17.60;;;;;;5089236;28;20035;-43
2023/08/14 12:45:24;;;;;;;3.83;1.80;;;29.80;17.80;;;;;;5110230;28;20027;-44
2023/08/14 12:47:50;;;;;;;3.35;1.70;;;29.80;17.70;;;;;;5091226;28;20058;-46